Terminal Aerodrome Forecast
Issued by NWS Goodland, KS

Home | Current Version | Previous Version | Text Only | Print | Product List | Glossary On
Versions: 1 2 3 4 5 6 7 8 9 10 11 12 13 14 15
000
FTUS43 KGLD 191700
TAFGLD
TAF
KGLD 191723Z 1918/2018 03012G20KT P6SM BKN120
     FM201100 35007KT P6SM SCT035 OVC100=

USA.gov is the U.S. government's official web portal to all federal, state and local government web resources and services.